createdAt,value
2018-12-21T00:00:40.852Z,170
2018-12-21T00:01:40.848Z,170
2018-12-21T00:02:40.855Z,170
2018-12-21T00:03:40.828Z,170
2018-12-21T00:04:40.830Z,170
2018-12-21T00:05:40.804Z,170
2018-12-21T00:06:40.875Z,170
2018-12-21T00:07:40.851Z,170
2018-12-21T00:08:40.862Z,170
2018-12-21T00:09:40.886Z,170
2018-12-21T00:10:41.814Z,170
2018-12-21T00:11:40.918Z,170
2018-12-21T00:12:40.770Z,170
2018-12-21T00:13:40.768Z,170
2018-12-21T00:14:40.980Z,170
2018-12-21T00:15:40.887Z,170
2018-12-21T00:16:43.676Z,170
2018-12-21T00:17:44.114Z,170
2018-12-21T00:18:40.774Z,170
2018-12-21T00:19:40.856Z,170
2018-12-21T00:20:40.867Z,170
2018-12-21T00:21:40.809Z,170
2018-12-21T00:22:40.867Z,170
2018-12-21T00:23:40.755Z,170
2018-12-21T00:24:40.830Z,170
2018-12-21T00:25:40.984Z,170
2018-12-21T00:26:40.834Z,170
2018-12-21T00:27:40.923Z,170
2018-12-21T00:28:40.827Z,170
2018-12-21T00:29:40.749Z,170
2018-12-21T00:30:40.853Z,170
2018-12-21T00:31:40.897Z,170
2018-12-21T00:32:40.879Z,170
2018-12-21T00:33:40.853Z,170
2018-12-21T00:34:40.804Z,170
2018-12-21T00:35:40.856Z,170
2018-12-21T00:36:40.962Z,170
2018-12-21T00:37:40.820Z,170
2018-12-21T00:38:40.844Z,170
2018-12-21T00:39:40.875Z,170
2018-12-21T00:40:40.790Z,170
2018-12-21T00:41:40.847Z,170
2018-12-21T00:42:40.889Z,170
2018-12-21T00:43:40.833Z,170
2018-12-21T00:44:40.824Z,170
2018-12-21T00:45:40.730Z,170
2018-12-21T00:46:40.813Z,170
2018-12-21T00:47:40.896Z,175.4
2018-12-21T00:48:40.818Z,177.4
2018-12-21T00:49:40.818Z,181
2018-12-21T00:50:40.756Z,183.5
2018-12-21T00:51:40.863Z,176.2
2018-12-21T00:52:40.893Z,172.9
2018-12-21T00:53:40.842Z,171.3
2018-12-21T00:54:40.805Z,170.6
2018-12-21T00:55:40.811Z,170.3
2018-12-21T00:56:40.817Z,170.1
2018-12-21T00:57:40.814Z,170.1
2018-12-21T00:58:40.801Z,170
2018-12-21T00:59:40.819Z,170
2018-12-21T01:00:40.858Z,170
2018-12-21T01:01:40.830Z,170
2018-12-21T01:02:40.733Z,170
2018-12-21T01:03:40.856Z,170
2018-12-21T01:04:40.790Z,170
2018-12-21T01:05:40.831Z,170
2018-12-21T01:06:40.875Z,170
2018-12-21T01:07:40.749Z,170
2018-12-21T01:08:40.872Z,170
2018-12-21T01:09:40.924Z,170
2018-12-21T01:10:40.793Z,170
2018-12-21T01:11:40.813Z,170
2018-12-21T01:12:40.715Z,170
2018-12-21T01:13:40.847Z,170
2018-12-21T01:14:40.801Z,170
2018-12-21T01:15:40.811Z,170
2018-12-21T01:16:40.774Z,170
2018-12-21T01:17:40.880Z,170
2018-12-21T01:18:40.746Z,170
2018-12-21T01:19:40.778Z,170
2018-12-21T01:20:40.795Z,170
2018-12-21T01:21:42.605Z,170
2018-12-21T01:22:43.102Z,170
2018-12-21T01:23:40.739Z,170
2018-12-21T01:24:40.792Z,170
2018-12-21T01:25:40.864Z,170
2018-12-21T01:26:40.797Z,170
2018-12-21T01:27:40.780Z,170
2018-12-21T01:28:40.791Z,170
2018-12-21T01:29:40.728Z,170
2018-12-21T01:30:40.869Z,170
2018-12-21T01:31:42.172Z,170
2018-12-21T01:32:40.821Z,170
2018-12-21T01:33:40.895Z,170
2018-12-21T01:34:40.832Z,170
2018-12-21T01:35:40.799Z,170
2018-12-21T01:36:40.782Z,170
2018-12-21T01:37:40.774Z,170
2018-12-21T01:38:40.791Z,170
2018-12-21T01:39:40.865Z,170
2018-12-21T01:40:40.718Z,170
2018-12-21T01:41:40.793Z,170
2018-12-21T01:42:40.771Z,170
2018-12-21T01:43:40.777Z,170
2018-12-21T01:44:40.849Z,170
2018-12-21T01:45:40.733Z,170
2018-12-21T01:46:40.775Z,170
2018-12-21T01:47:40.782Z,170
2018-12-21T01:48:40.781Z,170
2018-12-21T01:49:40.848Z,170
2018-12-21T01:50:40.802Z,170
2018-12-21T01:51:49.385Z,170
2018-12-21T01:52:40.775Z,170
2018-12-21T01:53:40.792Z,170
2018-12-21T01:54:40.778Z,170
2018-12-21T01:55:40.848Z,170
2018-12-21T01:56:40.700Z,170
2018-12-21T01:57:40.788Z,170
2018-12-21T01:58:40.802Z,170
2018-12-21T01:59:40.837Z,170
2018-12-21T02:00:40.805Z,170
2018-12-21T02:01:40.769Z,170
2018-12-21T02:02:40.778Z,170
2018-12-21T02:03:40.755Z,170
2018-12-21T02:04:40.846Z,170
2018-12-21T02:05:40.756Z,170
2018-12-21T02:06:40.808Z,170
2018-12-21T02:07:40.724Z,170
2018-12-21T02:08:40.769Z,170
2018-12-21T02:09:40.849Z,170
2018-12-21T02:10:40.764Z,170
2018-12-21T02:11:40.837Z,170
2018-12-21T02:12:40.706Z,170
2018-12-21T02:13:40.788Z,170
2018-12-21T02:14:40.767Z,170
2018-12-21T02:15:40.780Z,170
2018-12-21T02:16:40.858Z,170
2018-12-21T02:17:40.734Z,170
2018-12-21T02:18:40.719Z,170
2018-12-21T02:19:40.806Z,170
2018-12-21T02:20:40.756Z,170
2018-12-21T02:21:41.046Z,170
2018-12-21T02:22:40.816Z,170
2018-12-21T02:23:40.792Z,170
2018-12-21T02:24:40.744Z,170
2018-12-21T02:25:40.783Z,170
2018-12-21T02:26:40.887Z,170
2018-12-21T02:27:40.783Z,170
2018-12-21T02:28:40.782Z,170
2018-12-21T02:29:40.812Z,164.6
2018-12-21T02:30:40.747Z,155.4
2018-12-21T02:31:40.831Z,151.1
2018-12-21T02:32:40.773Z,149.2
2018-12-21T02:33:40.844Z,148.3
2018-12-21T02:34:40.695Z,147.9
2018-12-21T02:35:40.901Z,147.7
2018-12-21T02:36:40.779Z,147.6
2018-12-21T02:37:40.844Z,147.5
2018-12-21T02:38:40.827Z,147.5
2018-12-21T02:39:40.813Z,147.5
2018-12-21T02:40:40.684Z,153.3
2018-12-21T02:41:40.754Z,162.3
2018-12-21T02:42:40.977Z,166.4
2018-12-21T02:43:40.856Z,168.3
2018-12-21T02:44:40.742Z,169.2
2018-12-21T02:45:40.777Z,169.6
2018-12-21T02:46:40.807Z,169.8
2018-12-21T02:47:40.775Z,169.9
2018-12-21T02:48:40.751Z,170
2018-12-21T02:49:40.823Z,170
2018-12-21T02:50:40.692Z,170
2018-12-21T02:51:40.775Z,170
2018-12-21T02:52:40.804Z,170
2018-12-21T02:53:40.777Z,170
2018-12-21T02:54:40.886Z,170
2018-12-21T02:55:40.747Z,170
2018-12-21T02:56:40.698Z,170
2018-12-21T02:57:40.882Z,170
2018-12-21T02:58:40.740Z,170
2018-12-21T02:59:40.754Z,170
2018-12-21T03:00:40.776Z,170
2018-12-21T03:01:40.697Z,170
2018-12-21T03:02:40.829Z,170
2018-12-21T03:03:40.791Z,170
2018-12-21T03:04:40.752Z,170
2018-12-21T03:05:40.786Z,170
2018-12-21T03:06:40.702Z,170
2018-12-21T03:07:40.802Z,170
2018-12-21T03:08:40.728Z,170
2018-12-21T03:09:40.754Z,170
2018-12-21T03:10:40.755Z,170
2018-12-21T03:11:40.822Z,170
2018-12-21T03:12:40.725Z,170
2018-12-21T03:13:40.736Z,170
2018-12-21T03:14:40.787Z,170
2018-12-21T03:15:40.758Z,170
2018-12-21T03:16:40.803Z,170
2018-12-21T03:17:40.700Z,170
2018-12-21T03:18:40.723Z,170
2018-12-21T03:19:40.747Z,170
2018-12-21T03:20:40.760Z,170
2018-12-21T03:21:40.734Z,170
2018-12-21T03:22:40.754Z,170
2018-12-21T03:23:40.752Z,170
2018-12-21T03:24:40.726Z,170
2018-12-21T03:25:40.733Z,170
2018-12-21T03:26:40.799Z,170
2018-12-21T03:27:40.774Z,170
2018-12-21T03:28:40.763Z,170
2018-12-21T03:29:40.752Z,170
2018-12-21T03:30:40.762Z,170
2018-12-21T03:31:40.853Z,170
2018-12-21T03:32:40.755Z,170
2018-12-21T03:33:40.838Z,170
2018-12-21T03:34:40.696Z,170
2018-12-21T03:35:40.936Z,170
2018-12-21T03:36:40.752Z,170
2018-12-21T03:37:40.747Z,170
2018-12-21T03:38:40.794Z,170
2018-12-21T03:39:40.696Z,170
2018-12-21T03:40:40.745Z,170
2018-12-21T03:41:40.745Z,170
2018-12-21T03:42:40.743Z,170
2018-12-21T03:43:40.855Z,170
2018-12-21T03:44:40.821Z,170
2018-12-21T03:45:40.684Z,170
2018-12-21T03:46:40.722Z,170
2018-12-21T03:47:40.745Z,170
2018-12-21T03:48:40.814Z,170
2018-12-21T03:49:40.819Z,170
2018-12-21T03:50:40.664Z,170
2018-12-21T03:51:40.752Z,170
2018-12-21T03:52:40.712Z,170
2018-12-21T03:53:40.740Z,170
2018-12-21T03:54:40.884Z,170
2018-12-21T03:55:40.766Z,170
2018-12-21T03:56:40.687Z,170
2018-12-21T03:57:40.719Z,170
2018-12-21T03:58:40.892Z,170
2018-12-21T03:59:40.749Z,170
2018-12-21T04:00:40.724Z,170
2018-12-21T04:01:40.757Z,170
2018-12-21T04:02:40.745Z,170
2018-12-21T04:03:40.801Z,170
2018-12-21T04:04:40.805Z,170
2018-12-21T04:05:40.744Z,170
2018-12-21T04:06:40.676Z,170
2018-12-21T04:07:40.660Z,170
2018-12-21T04:08:40.799Z,170
2018-12-21T04:09:40.830Z,170
2018-12-21T04:10:40.781Z,170
2018-12-21T04:11:40.745Z,170
2018-12-21T04:12:40.667Z,170
2018-12-21T04:13:40.841Z,170
2018-12-21T04:14:40.819Z,170
2018-12-21T04:15:40.794Z,170
2018-12-21T04:16:40.741Z,170
2018-12-21T04:17:40.693Z,170
2018-12-21T04:18:40.672Z,170
2018-12-21T04:19:40.792Z,170
2018-12-21T04:20:40.899Z,170
2018-12-21T04:21:40.731Z,170
2018-12-21T04:22:40.726Z,170
2018-12-21T04:23:40.661Z,170
2018-12-21T04:24:40.784Z,170
2018-12-21T04:25:40.743Z,170
2018-12-21T04:26:40.711Z,170
2018-12-21T04:27:40.723Z,170
2018-12-21T04:28:42.077Z,170
2018-12-21T04:29:40.715Z,170
2018-12-21T04:30:41.044Z,170
2018-12-21T04:31:40.717Z,170
2018-12-21T04:32:40.700Z,170
2018-12-21T04:33:40.810Z,170
2018-12-21T04:34:40.733Z,170
2018-12-21T04:35:40.863Z,170
2018-12-21T04:36:40.742Z,170
2018-12-21T04:37:40.755Z,170
2018-12-21T04:38:40.989Z,170
2018-12-21T04:39:40.657Z,170
2018-12-21T04:40:40.771Z,170
2018-12-21T04:41:40.915Z,170
2018-12-21T04:42:40.698Z,170
2018-12-21T04:43:40.711Z,170
2018-12-21T04:44:41.474Z,170
2018-12-21T04:45:40.751Z,170
2018-12-21T04:46:40.749Z,170
2018-12-21T04:47:40.710Z,170
2018-12-21T04:48:40.696Z,170
2018-12-21T04:49:41.197Z,170
2018-12-21T04:50:40.643Z,170
2018-12-21T04:51:40.794Z,170
2018-12-21T04:52:46.841Z,170
2018-12-21T04:53:40.717Z,170
2018-12-21T04:54:40.768Z,170
2018-12-21T04:55:40.732Z,170
2018-12-21T04:56:40.755Z,170
2018-12-21T04:57:40.768Z,170
2018-12-21T04:58:40.713Z,170
2018-12-21T04:59:40.707Z,170
2018-12-21T05:00:40.701Z,170
2018-12-21T05:01:40.679Z,170
2018-12-21T05:02:40.836Z,170
2018-12-21T05:03:40.719Z,170
2018-12-21T05:04:40.718Z,170
2018-12-21T05:05:42.977Z,170
2018-12-21T05:06:40.685Z,170
2018-12-21T05:07:40.717Z,170
2018-12-21T05:08:40.696Z,170
2018-12-21T05:09:40.701Z,170
2018-12-21T05:10:40.696Z,170
2018-12-21T05:11:40.785Z,170
2018-12-21T05:12:40.618Z,170
2018-12-21T05:13:40.811Z,170
2018-12-21T05:14:40.764Z,170
2018-12-21T05:15:40.686Z,170
2018-12-21T05:16:40.711Z,170
2018-12-21T05:17:41.532Z,170
2018-12-21T05:18:40.615Z,170
2018-12-21T05:19:40.698Z,170
2018-12-21T05:20:40.698Z,170
2018-12-21T05:21:40.714Z,170
2018-12-21T05:22:40.784Z,170
2018-12-21T05:23:40.655Z,170
2018-12-21T05:24:40.732Z,170
2018-12-21T05:25:40.703Z,170
2018-12-21T05:26:40.698Z,170
2018-12-21T05:27:40.797Z,170
2018-12-21T05:28:40.644Z,170
2018-12-21T05:29:43.132Z,170
2018-12-21T05:30:40.771Z,170
2018-12-21T05:31:40.713Z,170
2018-12-21T05:32:41.374Z,170
2018-12-21T05:33:40.691Z,170
2018-12-21T05:34:40.701Z,170
2018-12-21T05:35:40.710Z,170
2018-12-21T05:36:40.897Z,170
2018-12-21T05:37:40.742Z,170
2018-12-21T05:38:40.729Z,170
2018-12-21T05:39:40.635Z,130.1
2018-12-21T05:40:40.666Z,98.9
2018-12-21T05:41:40.686Z,87.7
2018-12-21T05:42:41.025Z,83.4
2018-12-21T05:43:40.678Z,81.5
2018-12-21T05:44:40.653Z,80.7
2018-12-21T05:45:40.676Z,80.3
2018-12-21T05:46:40.932Z,80.2
2018-12-21T05:47:41.277Z,80.1
2018-12-21T05:48:45.544Z,80
2018-12-21T05:49:42.246Z,80
2018-12-21T05:50:40.883Z,80
2018-12-21T05:51:41.080Z,80
2018-12-21T05:52:40.913Z,80
2018-12-21T05:53:40.910Z,80
2018-12-21T05:54:40.961Z,80
2018-12-21T05:55:40.826Z,80
2018-12-21T05:56:40.992Z,80
2018-12-21T05:57:40.785Z,80
2018-12-21T05:58:40.992Z,80
2018-12-21T05:59:40.918Z,80
2018-12-21T06:00:40.920Z,80
2018-12-21T06:01:40.837Z,80
2018-12-21T06:02:42.467Z,80
2018-12-21T06:03:40.915Z,80
2018-12-21T06:04:40.979Z,80
2018-12-21T06:05:40.934Z,80
2018-12-21T06:06:40.878Z,80
2018-12-21T06:07:40.907Z,80
2018-12-21T06:08:40.989Z,80
2018-12-21T06:09:41.013Z,80
2018-12-21T06:10:40.993Z,80
2018-12-21T06:11:40.893Z,80
2018-12-21T06:12:40.854Z,80
2018-12-21T06:13:40.988Z,80
2018-12-21T06:14:40.893Z,80
2018-12-21T06:15:40.918Z,80
2018-12-21T06:16:41.082Z,80
2018-12-21T06:17:41.018Z,80
2018-12-21T06:18:40.809Z,80
2018-12-21T06:19:40.954Z,80
2018-12-21T06:20:40.878Z,80
2018-12-21T06:21:40.924Z,80
2018-12-21T06:22:40.898Z,80
2018-12-21T06:23:40.867Z,87.8
2018-12-21T06:24:40.848Z,95.7
2018-12-21T06:25:40.915Z,99.3
2018-12-21T06:26:43.237Z,101
2018-12-21T06:27:40.919Z,101.8
2018-12-21T06:28:41.095Z,102.2
2018-12-21T06:29:40.607Z,102.4
2018-12-21T06:30:40.636Z,102.4
2018-12-21T06:31:40.673Z,102.5
2018-12-21T06:32:42.475Z,102.5
2018-12-21T06:33:40.672Z,102.5
2018-12-21T06:34:40.783Z,102.5
2018-12-21T06:35:40.652Z,102.5
2018-12-21T06:36:40.735Z,102.5
2018-12-21T06:37:40.729Z,102.5
2018-12-21T06:38:42.175Z,102.5
2018-12-21T06:39:40.900Z,102.5
2018-12-21T06:40:40.941Z,102.5
2018-12-21T06:41:40.840Z,102.5
2018-12-21T06:42:40.904Z,102.5
2018-12-21T06:43:40.865Z,102.5
2018-12-21T06:44:40.815Z,102.5
2018-12-21T06:45:40.990Z,102.5
2018-12-21T06:46:40.882Z,102.5
2018-12-21T06:47:40.905Z,102.5
2018-12-21T06:48:40.926Z,102.5
2018-12-21T06:49:40.907Z,102.5
2018-12-21T06:50:40.772Z,102.5
2018-12-21T06:51:40.899Z,102.5
2018-12-21T06:52:41.158Z,102.5
2018-12-21T06:53:40.860Z,102.5
2018-12-21T06:54:40.777Z,102.5
2018-12-21T06:55:40.875Z,102.5
2018-12-21T06:56:40.804Z,102.5
2018-12-21T06:57:41.007Z,102.5
2018-12-21T06:58:40.802Z,102.5
2018-12-21T06:59:40.783Z,102.5
2018-12-21T07:00:40.829Z,102.5
2018-12-21T07:01:40.869Z,102.5
2018-12-21T07:02:40.879Z,102.5
2018-12-21T07:03:40.721Z,102.5
2018-12-21T07:04:40.850Z,102.5
2018-12-21T07:05:40.663Z,102.5
2018-12-21T07:06:40.657Z,102.5
2018-12-21T07:07:40.710Z,102.5
2018-12-21T07:08:40.728Z,102.5
2018-12-21T07:09:40.640Z,102.5
2018-12-21T07:10:40.638Z,102.5
2018-12-21T07:11:40.636Z,102.5
2018-12-21T07:12:40.635Z,102.5
2018-12-21T07:13:40.614Z,102.5
2018-12-21T07:14:40.645Z,102.5
2018-12-21T07:15:40.882Z,102.5
2018-12-21T07:16:40.583Z,102.5
2018-12-21T07:17:40.619Z,102.5
2018-12-21T07:18:40.577Z,102.5
2018-12-21T07:19:40.652Z,102.5
2018-12-21T07:20:40.719Z,102.5
2018-12-21T07:21:40.677Z,102.5
2018-12-21T07:22:40.679Z,102.5
2018-12-21T07:23:40.666Z,102.5
2018-12-21T07:24:40.623Z,102.5
2018-12-21T07:25:40.622Z,102.5
2018-12-21T07:26:40.652Z,102.5
2018-12-21T07:27:40.715Z,102.5
2018-12-21T07:28:40.587Z,102.5
2018-12-21T07:29:40.786Z,102.5
2018-12-21T07:30:40.830Z,102.5
2018-12-21T07:31:41.346Z,102.5
2018-12-21T07:32:40.695Z,102.5
2018-12-21T07:33:41.701Z,102.5
2018-12-21T07:34:40.584Z,102.5
2018-12-21T07:35:40.631Z,102.5
2018-12-21T07:36:40.639Z,102.5
2018-12-21T07:37:40.625Z,102.5
2018-12-21T07:38:40.706Z,102.5
2018-12-21T07:39:40.571Z,102.5
2018-12-21T07:40:40.655Z,102.5
2018-12-21T07:41:40.631Z,102.5
2018-12-21T07:42:40.694Z,102.5
2018-12-21T07:43:40.683Z,102.5
2018-12-21T07:44:40.604Z,102.5
2018-12-21T07:45:40.637Z,102.5
2018-12-21T07:46:40.695Z,102.5
2018-12-21T07:47:40.613Z,102.5
2018-12-21T07:48:40.685Z,102.5
2018-12-21T07:49:40.622Z,102.5
2018-12-21T07:50:40.579Z,102.5
2018-12-21T07:51:40.650Z,102.5
2018-12-21T07:52:40.641Z,102.5
2018-12-21T07:53:40.690Z,102.5
2018-12-21T07:54:40.627Z,102.5
2018-12-21T07:55:40.594Z,102.5
2018-12-21T07:56:40.632Z,102.5
2018-12-21T07:57:40.706Z,102.5
2018-12-21T07:58:40.663Z,102.5
2018-12-21T07:59:40.589Z,102.5
2018-12-21T08:00:40.781Z,102.5
2018-12-21T08:01:40.622Z,102.5
2018-12-21T08:02:40.596Z,102.5
2018-12-21T08:03:40.638Z,102.5
2018-12-21T08:04:43.430Z,102.5
2018-12-21T08:05:40.584Z,102.5
2018-12-21T08:06:40.643Z,102.5
2018-12-21T08:07:40.540Z,102.5
2018-12-21T08:08:40.605Z,102.5
2018-12-21T08:09:40.633Z,102.5
2018-12-21T08:10:40.604Z,102.5
2018-12-21T08:11:40.697Z,102.5
2018-12-21T08:12:40.566Z,102.5
2018-12-21T08:13:40.614Z,102.5
2018-12-21T08:14:40.591Z,102.5
2018-12-21T08:15:40.603Z,102.5
2018-12-21T08:16:40.678Z,102.5
2018-12-21T08:17:40.564Z,102.5
2018-12-21T08:18:40.654Z,102.5
2018-12-21T08:19:40.735Z,102.5
2018-12-21T08:20:40.630Z,102.5
2018-12-21T08:21:40.695Z,102.5
2018-12-21T08:22:40.670Z,102.5
2018-12-21T08:23:47.782Z,102.5
2018-12-21T08:24:40.611Z,102.5
2018-12-21T08:25:40.603Z,102.5
2018-12-21T08:26:40.643Z,102.5
2018-12-21T08:27:40.764Z,102.5
2018-12-21T08:28:40.642Z,102.5
2018-12-21T08:29:40.606Z,102.5
2018-12-21T08:30:40.715Z,102.5
2018-12-21T08:31:40.606Z,102.5
2018-12-21T08:32:40.586Z,102.5
2018-12-21T08:33:40.726Z,102.5
2018-12-21T08:34:40.540Z,102.5
2018-12-21T08:35:40.647Z,102.5
2018-12-21T08:36:42.904Z,102.5
2018-12-21T08:37:40.736Z,102.5
2018-12-21T08:38:40.542Z,102.5
2018-12-21T08:39:40.546Z,102.5
2018-12-21T08:40:40.602Z,102.5
2018-12-21T08:41:40.691Z,102.5
2018-12-21T08:42:40.613Z,102.5
2018-12-21T08:43:40.610Z,102.5
2018-12-21T08:44:40.628Z,102.5
2018-12-21T08:45:40.605Z,102.5
2018-12-21T08:46:40.601Z,102.5
2018-12-21T08:47:40.655Z,102.5
2018-12-21T08:48:40.599Z,102.5
2018-12-21T08:49:40.572Z,102.5
2018-12-21T08:50:40.555Z,102.5
2018-12-21T08:51:40.577Z,102.5
2018-12-21T08:52:40.659Z,102.5
2018-12-21T08:53:40.605Z,102.5
2018-12-21T08:54:40.708Z,102.5
2018-12-21T08:55:40.644Z,102.5
2018-12-21T08:56:40.707Z,102.5
2018-12-21T08:57:40.595Z,102.5
2018-12-21T08:58:40.601Z,102.5
2018-12-21T08:59:40.625Z,102.5
2018-12-21T09:00:40.589Z,102.5
2018-12-21T09:01:40.594Z,102.5
2018-12-21T09:02:40.666Z,102.5
2018-12-21T09:03:40.601Z,102.5
2018-12-21T09:04:40.665Z,102.5
2018-12-21T09:05:40.603Z,102.5
2018-12-21T09:06:40.545Z,102.5
2018-12-21T09:07:42.682Z,102.5
2018-12-21T09:08:40.904Z,102.5
2018-12-21T09:09:41.548Z,102.5
2018-12-21T09:10:40.585Z,102.5
2018-12-21T09:11:40.667Z,102.5
2018-12-21T09:12:40.553Z,102.5
2018-12-21T09:13:40.588Z,102.5
2018-12-21T09:14:40.697Z,102.5
2018-12-21T09:15:40.513Z,102.5
2018-12-21T09:16:42.746Z,102.5
2018-12-21T09:17:40.599Z,102.5
2018-12-21T09:18:40.739Z,102.5
2018-12-21T09:19:40.606Z,102.5
2018-12-21T09:20:40.594Z,102.5
2018-12-21T09:21:40.648Z,102.5
2018-12-21T09:22:41.786Z,102.5
2018-12-21T09:23:40.701Z,102.5
2018-12-21T09:24:40.537Z,102.5
2018-12-21T09:25:40.622Z,102.5
2018-12-21T09:26:40.588Z,102.5
2018-12-21T09:27:40.667Z,102.5
2018-12-21T09:28:40.538Z,102.5
2018-12-21T09:29:40.602Z,102.5
2018-12-21T09:30:40.684Z,102.5
2018-12-21T09:31:41.216Z,102.5
2018-12-21T09:32:50.294Z,102.5
2018-12-21T09:33:40.536Z,102.5
2018-12-21T09:34:40.615Z,102.5
2018-12-21T09:35:40.661Z,102.5
2018-12-21T09:36:40.561Z,102.5
2018-12-21T09:37:40.661Z,102.5
2018-12-21T09:38:40.587Z,102.5
2018-12-21T09:39:40.532Z,102.5
2018-12-21T09:40:40.664Z,102.5
2018-12-21T09:41:40.571Z,102.5
2018-12-21T09:42:40.619Z,102.5
2018-12-21T09:43:40.579Z,102.5
2018-12-21T09:44:40.526Z,102.5
2018-12-21T09:45:40.585Z,102.5
2018-12-21T09:46:40.579Z,102.5
2018-12-21T09:47:40.594Z,102.5
2018-12-21T09:48:40.596Z,102.5
2018-12-21T09:49:40.577Z,102.5
2018-12-21T09:50:40.588Z,102.5
2018-12-21T09:51:40.563Z,102.5
2018-12-21T09:52:40.648Z,102.5
2018-12-21T09:53:40.570Z,102.5
2018-12-21T09:54:40.575Z,102.5
2018-12-21T09:55:40.541Z,102.5
2018-12-21T09:56:40.667Z,102.5
2018-12-21T09:57:40.589Z,102.5
2018-12-21T09:58:40.562Z,102.5
2018-12-21T09:59:40.625Z,102.5
2018-12-21T10:00:40.569Z,102.5
2018-12-21T10:01:40.497Z,102.5
2018-12-21T10:02:40.634Z,102.5
2018-12-21T10:03:40.571Z,102.5
2018-12-21T10:04:40.576Z,102.5
2018-12-21T10:05:40.548Z,102.5
2018-12-21T10:06:40.540Z,102.5
2018-12-21T10:07:43.537Z,102.5
2018-12-21T10:08:40.575Z,102.5
2018-12-21T10:09:40.570Z,102.5
2018-12-21T10:10:40.564Z,102.5
2018-12-21T10:11:40.570Z,102.5
2018-12-21T10:12:40.567Z,102.5
2018-12-21T10:13:40.637Z,102.5
2018-12-21T10:14:40.548Z,102.5
2018-12-21T10:15:40.553Z,102.5
2018-12-21T10:16:40.568Z,102.5
2018-12-21T10:17:40.507Z,102.5
2018-12-21T10:18:40.633Z,102.5
2018-12-21T10:19:40.576Z,102.5
2018-12-21T10:20:40.544Z,102.5
2018-12-21T10:21:40.573Z,102.5
2018-12-21T10:22:40.525Z,102.5
2018-12-21T10:23:40.574Z,102.5
2018-12-21T10:24:40.592Z,102.5
2018-12-21T10:25:40.563Z,102.5
2018-12-21T10:26:40.556Z,102.5
2018-12-21T10:27:40.549Z,102.5
2018-12-21T10:28:40.660Z,102.5
2018-12-21T10:29:40.559Z,102.5
2018-12-21T10:30:40.530Z,104.1
2018-12-21T10:31:40.661Z,115.3
2018-12-21T10:32:41.728Z,120.5
2018-12-21T10:33:40.520Z,122.9
2018-12-21T10:34:40.506Z,124
2018-12-21T10:35:40.489Z,124.5
2018-12-21T10:36:40.510Z,124.8
2018-12-21T10:37:40.626Z,124.9
2018-12-21T10:38:40.548Z,125
2018-12-21T10:39:40.486Z,125
2018-12-21T10:40:40.619Z,125
2018-12-21T10:41:40.544Z,125
2018-12-21T10:42:40.598Z,125
2018-12-21T10:43:40.561Z,125
2018-12-21T10:44:40.536Z,125
2018-12-21T10:45:45.302Z,125
2018-12-21T10:46:40.569Z,125
2018-12-21T10:47:40.624Z,125
2018-12-21T10:48:41.255Z,125
2018-12-21T10:49:40.502Z,125
2018-12-21T10:50:40.549Z,125
2018-12-21T10:51:41.342Z,125
2018-12-21T10:52:42.406Z,125
2018-12-21T10:53:46.491Z,125
2018-12-21T10:54:40.485Z,125
2018-12-21T10:55:40.619Z,125
2018-12-21T10:56:40.567Z,125
2018-12-21T10:57:42.282Z,125
2018-12-21T10:58:40.635Z,125
2018-12-21T10:59:46.939Z,125
2018-12-21T11:00:40.560Z,125
2018-12-21T11:01:40.513Z,125
2018-12-21T11:02:40.549Z,125
2018-12-21T11:03:40.545Z,125
2018-12-21T11:04:40.529Z,125
2018-12-21T11:05:50.920Z,125
2018-12-21T11:06:48.792Z,125
2018-12-21T11:07:40.627Z,125
2018-12-21T11:08:40.543Z,125
2018-12-21T11:09:40.567Z,125
2018-12-21T11:10:40.513Z,125
2018-12-21T11:11:40.495Z,125
2018-12-21T11:12:40.606Z,125
2018-12-21T11:13:40.769Z,125
2018-12-21T11:14:40.548Z,125
2018-12-21T11:15:40.709Z,125
2018-12-21T11:16:40.548Z,125
2018-12-21T11:17:40.727Z,125
2018-12-21T11:18:43.319Z,125
2018-12-21T11:19:40.503Z,125
2018-12-21T11:20:40.628Z,125
2018-12-21T11:21:40.554Z,125
2018-12-21T11:22:40.554Z,125
2018-12-21T11:23:40.546Z,125
2018-12-21T11:24:40.518Z,125
2018-12-21T11:25:41.377Z,125
2018-12-21T11:26:40.627Z,125
2018-12-21T11:27:40.533Z,125
2018-12-21T11:28:40.613Z,125
2018-12-21T11:29:40.712Z,125
2018-12-21T11:30:40.509Z,125
2018-12-21T11:31:40.497Z,125
2018-12-21T11:32:40.468Z,125
2018-12-21T11:33:40.544Z,125
2018-12-21T11:34:40.438Z,125
2018-12-21T11:35:40.551Z,125
2018-12-21T11:36:40.529Z,125
2018-12-21T11:39:12.777Z,125
2018-12-21T11:39:57.694Z,125
2018-12-21T11:40:55.583Z,125
2018-12-21T11:41:55.408Z,125
2018-12-21T11:42:55.611Z,125
2018-12-21T11:43:55.795Z,125
2018-12-21T11:44:55.389Z,125
2018-12-21T11:45:55.685Z,125
2018-12-21T11:47:59.730Z,125
2018-12-21T11:48:57.762Z,125
2018-12-21T11:49:57.723Z,125
2018-12-21T11:50:55.495Z,125
2018-12-21T11:51:55.517Z,125
2018-12-21T11:52:55.665Z,125
2018-12-21T11:53:55.623Z,125
2018-12-21T11:54:55.553Z,125
2018-12-21T11:55:55.679Z,125
2018-12-21T11:56:55.590Z,125
2018-12-21T11:57:55.533Z,125
2018-12-21T11:58:55.743Z,125
2018-12-21T11:59:55.447Z,125
2018-12-21T12:00:55.594Z,125
2018-12-21T12:01:55.728Z,125
2018-12-21T12:02:55.529Z,125
2018-12-21T12:03:55.508Z,125
2018-12-21T12:04:55.774Z,125
2018-12-21T12:05:55.559Z,125
2018-12-21T12:06:55.541Z,125
2018-12-21T12:07:55.720Z,125
2018-12-21T12:08:55.542Z,125
2018-12-21T12:09:55.611Z,125
2018-12-21T12:10:55.700Z,125
2018-12-21T12:11:55.541Z,125
2018-12-21T12:12:55.468Z,125
2018-12-21T12:13:55.751Z,125
2018-12-21T12:14:55.445Z,125
2018-12-21T12:15:55.454Z,125
2018-12-21T12:16:55.667Z,125
2018-12-21T12:17:55.462Z,125
2018-12-21T12:18:55.534Z,125
2018-12-21T12:19:55.756Z,125
2018-12-21T12:20:55.526Z,125
2018-12-21T12:21:55.532Z,125
2018-12-21T12:22:55.772Z,125
2018-12-21T12:23:55.509Z,125
2018-12-21T12:24:58.481Z,125
2018-12-21T12:26:00.679Z,125
2018-12-21T12:27:00.520Z,125
2018-12-21T12:27:55.463Z,125
2018-12-21T12:28:55.643Z,125
2018-12-21T12:29:55.811Z,125
2018-12-21T12:30:55.505Z,125
2018-12-21T12:31:55.989Z,125
2018-12-21T12:32:55.439Z,125
2018-12-21T12:33:55.517Z,125
2018-12-21T12:34:55.605Z,125
2018-12-21T12:35:55.537Z,125
2018-12-21T12:36:55.590Z,125
2018-12-21T12:37:55.633Z,125
2018-12-21T12:38:56.522Z,125
2018-12-21T12:39:55.487Z,125
2018-12-21T12:40:55.784Z,125
2018-12-21T12:41:55.592Z,125
2018-12-21T12:42:55.458Z,125
2018-12-21T12:43:55.592Z,125
2018-12-21T12:44:55.533Z,125
2018-12-21T12:45:55.585Z,125
2018-12-21T12:46:55.756Z,125
2018-12-21T12:47:55.636Z,125
2018-12-21T12:48:55.562Z,125
2018-12-21T12:49:55.714Z,125
2018-12-21T12:50:55.524Z,125
2018-12-21T12:51:55.503Z,125
2018-12-21T12:52:55.900Z,125
2018-12-21T12:53:55.556Z,125
2018-12-21T12:55:05.143Z,125
2018-12-21T12:55:55.757Z,125
2018-12-21T12:56:55.541Z,125
2018-12-21T12:57:55.521Z,125
2018-12-21T12:58:55.767Z,125
2018-12-21T12:59:55.447Z,125
2018-12-21T13:00:55.561Z,125
2018-12-21T13:01:55.768Z,125
2018-12-21T13:02:55.473Z,125
2018-12-21T13:03:55.538Z,125
2018-12-21T13:04:55.789Z,125
2018-12-21T13:05:55.475Z,125
2018-12-21T13:06:55.562Z,125
2018-12-21T13:07:55.797Z,125
2018-12-21T13:08:55.513Z,125
2018-12-21T13:09:55.499Z,125
2018-12-21T13:10:55.642Z,125
2018-12-21T13:11:55.589Z,125
2018-12-21T13:12:55.450Z,125
2018-12-21T13:13:59.268Z,125
2018-12-21T13:14:55.489Z,125
2018-12-21T13:15:55.508Z,125
2018-12-21T13:16:55.633Z,125
2018-12-21T13:17:55.476Z,125
2018-12-21T13:18:55.526Z,125
2018-12-21T13:19:55.765Z,125
2018-12-21T13:20:55.556Z,125
2018-12-21T13:21:55.461Z,125
2018-12-21T13:22:55.844Z,125
2018-12-21T13:23:55.494Z,125
2018-12-21T13:24:55.530Z,125
2018-12-21T13:25:55.784Z,125
2018-12-21T13:26:55.435Z,125
2018-12-21T13:27:56.436Z,125
2018-12-21T13:28:55.647Z,125
2018-12-21T13:29:55.497Z,125